Bushnell, Illinois
Current Conditions -  °F | °C
As of 10:35 AM on Tuesday 21 Oct 2014 (Local Time) from KMQB Reporting Station
Clear Clear  
Wind Chill: 13°   Ceiling: Unl
Heat Index: 13°   Visibility: 10mi
Dew Point:   Wind: 8mph
Humidity: 65%   Direction: 50°NE
Pressure: 30.2"   Gusts: NA
Location:  40.55°N, 90.51°W
Report Text: KMQB 211535Z AUTO 05007KT 10SM CLR 13/07 A3020 RMK AO2 T01300065
Loading
Personal Weather Stations






























Interactive Weather Map
Tropical Storm Tracking
New forecast layout! Learn more

10-Day Weather Forecast

Advertisements
Track Severe Weather on mobile